TVO3539 LFRS-LFPG
Flight info
| Callsign | TVO3539 |
|---|---|
| Flight time | 0h 41m |
| Altitude | 24000 |
| Route | ANG UN741 KEPER |
| Aircraft | A20N/M-SDE2E3FGHIRWXY/LB1 |
Departure
| Time | 2026-05-08 20:40 |
|---|---|
| Airport | Nantes Atlantique Airport (LFRS) |
Arrival
| Time | 2026-05-08 21:21 |
|---|---|
| Airport | Charles de Gaulle International Airport (LFPG) |
| Time | Latitude | Longitude | Altitude | Speed | Heading |
|---|---|---|---|---|---|
| 2026-05-08 20:07 | 47.15688 | -1.60212 | 96 ft | 0 kts | 35° |
| 2026-05-08 20:28 | 47.15677 | -1.60224 | 96 ft | 2 kts | 35° |
| 2026-05-08 20:28 | 47.15666 | -1.60235 | 95 ft | 0 kts | 35° |
| 2026-05-08 20:28 | 47.15657 | -1.60244 | 95 ft | 2 kts | 25° |
| 2026-05-08 20:29 | 47.15642 | -1.60251 | 95 ft | 2 kts | 8° |
| 2026-05-08 20:29 | 47.15628 | -1.60251 | 95 ft | 2 kts | 351° |
| 2026-05-08 20:29 | 47.15613 | -1.60246 | 95 ft | 2 kts | 335° |
| 2026-05-08 20:29 | 47.15601 | -1.60234 | 95 ft | 2 kts | 319° |
| 2026-05-08 20:30 | 47.15590 | -1.60218 | 95 ft | 2 kts | 302° |
| 2026-05-08 20:30 | 47.15587 | -1.60209 | 96 ft | 1 kts | 294° |
| 2026-05-08 20:30 | 47.15586 | -1.60205 | 96 ft | 0 kts | 296° |
| 2026-05-08 20:33 | 47.15589 | -1.60215 | 95 ft | 2 kts | 296° |
| 2026-05-08 20:33 | 47.15603 | -1.60255 | 95 ft | 5 kts | 298° |
| 2026-05-08 20:33 | 47.15630 | -1.60310 | 94 ft | 7 kts | 311° |
| 2026-05-08 20:34 | 47.15675 | -1.60370 | 94 ft | 9 kts | 319° |
| 2026-05-08 20:34 | 47.15721 | -1.60446 | 93 ft | 10 kts | 281° |
| 2026-05-08 20:34 | 47.15607 | -1.60584 | 93 ft | 12 kts | 206° |
| 2026-05-08 20:35 | 47.15527 | -1.60641 | 93 ft | 12 kts | 209° |
| 2026-05-08 20:35 | 47.15448 | -1.60707 | 94 ft | 13 kts | 207° |
| 2026-05-08 20:35 | 47.15364 | -1.60772 | 94 ft | 14 kts | 207° |
| 2026-05-08 20:35 | 47.15274 | -1.60839 | 94 ft | 14 kts | 206° |
| 2026-05-08 20:36 | 47.15183 | -1.60908 | 94 ft | 15 kts | 207° |
| 2026-05-08 20:36 | 47.15086 | -1.60983 | 94 ft | 15 kts | 211° |
| 2026-05-08 20:36 | 47.14989 | -1.61061 | 93 ft | 16 kts | 205° |
| 2026-05-08 20:36 | 47.14883 | -1.61134 | 92 ft | 17 kts | 206° |
| 2026-05-08 20:37 | 47.14773 | -1.61219 | 91 ft | 18 kts | 209° |
| 2026-05-08 20:37 | 47.14659 | -1.61307 | 89 ft | 19 kts | 207° |
| 2026-05-08 20:37 | 47.14537 | -1.61399 | 87 ft | 20 kts | 208° |
| 2026-05-08 20:37 | 47.14411 | -1.61495 | 86 ft | 20 kts | 207° |
| 2026-05-08 20:38 | 47.14282 | -1.61595 | 84 ft | 21 kts | 207° |
| 2026-05-08 20:38 | 47.14174 | -1.61702 | 83 ft | 16 kts | 240° |
| 2026-05-08 20:38 | 47.14146 | -1.61863 | 82 ft | 16 kts | 287° |
| 2026-05-08 20:38 | 47.14218 | -1.61908 | 82 ft | 9 kts | 22° |
| 2026-05-08 20:39 | 47.14282 | -1.61860 | 83 ft | 13 kts | 27° |
| 2026-05-08 20:39 | 47.14574 | -1.61637 | 86 ft | 83 kts | 27° |
| 2026-05-08 20:39 | 47.15287 | -1.61098 | 93 ft | 144 kts | 26° |
| 2026-05-08 20:39 | 47.16287 | -1.60350 | 353 ft | 172 kts | 26° |
| 2026-05-08 20:40 | 47.17278 | -1.59419 | 1037 ft | 170 kts | 49° |
| 2026-05-08 20:40 | 47.17706 | -1.57953 | 1825 ft | 158 kts | 98° |
| 2026-05-08 20:40 | 47.17218 | -1.56530 | 2348 ft | 170 kts | 133° |
| 2026-05-08 20:40 | 47.16201 | -1.55487 | 2761 ft | 188 kts | 140° |
| 2026-05-08 20:41 | 47.15437 | -1.53916 | 3192 ft | 200 kts | 101° |
| 2026-05-08 20:41 | 47.15352 | -1.51795 | 3660 ft | 218 kts | 91° |
| 2026-05-08 20:41 | 47.15321 | -1.49501 | 4171 ft | 236 kts | 93° |
| 2026-05-08 20:41 | 47.15213 | -1.47023 | 4769 ft | 251 kts | 96° |
| 2026-05-08 20:42 | 47.15037 | -1.44451 | 5585 ft | 257 kts | 97° |
| 2026-05-08 20:42 | 47.14826 | -1.41864 | 6417 ft | 262 kts | 98° |
| 2026-05-08 20:42 | 47.14588 | -1.39196 | 7225 ft | 268 kts | 98° |
| 2026-05-08 20:42 | 47.14338 | -1.36474 | 8053 ft | 273 kts | 98° |
| 2026-05-08 20:43 | 47.14100 | -1.33730 | 8894 ft | 277 kts | 95° |
| 2026-05-08 20:43 | 47.14395 | -1.30938 | 9670 ft | 286 kts | 68° |
| 2026-05-08 20:43 | 47.15580 | -1.28561 | 10466 ft | 295 kts | 44° |
| 2026-05-08 20:43 | 47.17209 | -1.26685 | 10964 ft | 310 kts | 39° |
| 2026-05-08 20:44 | 47.18998 | -1.24719 | 11365 ft | 329 kts | 39° |
| 2026-05-08 20:44 | 47.20868 | -1.22650 | 11783 ft | 345 kts | 39° |
| 2026-05-08 20:44 | 47.22790 | -1.20504 | 12457 ft | 351 kts | 39° |
| 2026-05-08 20:44 | 47.24746 | -1.18304 | 13224 ft | 355 kts | 39° |
| 2026-05-08 20:45 | 47.26702 | -1.16093 | 13948 ft | 359 kts | 40° |
| 2026-05-08 20:45 | 47.28662 | -1.13866 | 14639 ft | 364 kts | 40° |
| 2026-05-08 20:45 | 47.30686 | -1.11561 | 15319 ft | 369 kts | 40° |
| 2026-05-08 20:45 | 47.32709 | -1.09255 | 15978 ft | 373 kts | 40° |
| 2026-05-08 20:46 | 47.34791 | -1.06879 | 16618 ft | 378 kts | 40° |
| 2026-05-08 20:46 | 47.36873 | -1.04498 | 17255 ft | 382 kts | 40° |
| 2026-05-08 20:46 | 47.38960 | -1.02109 | 17889 ft | 386 kts | 40° |
| 2026-05-08 20:46 | 47.41108 | -0.99646 | 18502 ft | 390 kts | 40° |
| 2026-05-08 20:47 | 47.43269 | -0.97167 | 19022 ft | 397 kts | 40° |
| 2026-05-08 20:47 | 47.45441 | -0.94676 | 19482 ft | 404 kts | 40° |
| 2026-05-08 20:47 | 47.47667 | -0.92116 | 20054 ft | 408 kts | 40° |
| 2026-05-08 20:47 | 47.49902 | -0.89547 | 20637 ft | 411 kts | 40° |
| 2026-05-08 20:48 | 47.52085 | -0.86821 | 21199 ft | 411 kts | 48° |
| 2026-05-08 20:48 | 47.53847 | -0.83526 | 21757 ft | 409 kts | 61° |
| 2026-05-08 20:48 | 47.55098 | -0.79753 | 22310 ft | 408 kts | 71° |
| 2026-05-08 20:48 | 47.56070 | -0.75813 | 22857 ft | 410 kts | 73° |
| 2026-05-08 20:49 | 47.57006 | -0.71840 | 23372 ft | 413 kts | 73° |
| 2026-05-08 20:49 | 47.57956 | -0.67833 | 23822 ft | 415 kts | 73° |
| 2026-05-08 20:49 | 47.58929 | -0.63794 | 23977 ft | 417 kts | 73° |
| 2026-05-08 20:49 | 47.59910 | -0.59756 | 23975 ft | 416 kts | 73° |
| 2026-05-08 20:50 | 47.60884 | -0.55731 | 23979 ft | 416 kts | 73° |
| 2026-05-08 20:50 | 47.61863 | -0.51688 | 23979 ft | 416 kts | 73° |
| 2026-05-08 20:50 | 47.62835 | -0.47655 | 23974 ft | 415 kts | 73° |
| 2026-05-08 20:50 | 47.63805 | -0.43623 | 23986 ft | 415 kts | 73° |
| 2026-05-08 20:51 | 47.64762 | -0.39641 | 23978 ft | 415 kts | 73° |
| 2026-05-08 20:51 | 47.65728 | -0.35619 | 23981 ft | 415 kts | 73° |
| 2026-05-08 20:51 | 47.66694 | -0.31588 | 23980 ft | 415 kts | 73° |
| 2026-05-08 20:51 | 47.67658 | -0.27550 | 23984 ft | 415 kts | 73° |
| 2026-05-08 20:52 | 47.68624 | -0.23497 | 23991 ft | 415 kts | 73° |
| 2026-05-08 20:52 | 47.69584 | -0.19463 | 23991 ft | 416 kts | 73° |
| 2026-05-08 20:52 | 47.70538 | -0.15450 | 23992 ft | 416 kts | 73° |
| 2026-05-08 20:52 | 47.71495 | -0.11421 | 23987 ft | 417 kts | 73° |
| 2026-05-08 20:53 | 47.72455 | -0.07356 | 23989 ft | 417 kts | 73° |
| 2026-05-08 20:53 | 47.73415 | -0.03290 | 23992 ft | 417 kts | 73° |
| 2026-05-08 20:53 | 47.74371 | 0.00756 | 23991 ft | 416 kts | 73° |
| 2026-05-08 20:53 | 47.75318 | 0.04781 | 23993 ft | 416 kts | 73° |
| 2026-05-08 20:54 | 47.76271 | 0.08838 | 23992 ft | 415 kts | 73° |
| 2026-05-08 20:54 | 47.77217 | 0.12872 | 23991 ft | 415 kts | 73° |
| 2026-05-08 20:54 | 47.78169 | 0.16945 | 23995 ft | 416 kts | 73° |
| 2026-05-08 20:54 | 47.79129 | 0.20990 | 23992 ft | 416 kts | 70° |
| 2026-05-08 20:55 | 47.80596 | 0.24691 | 23980 ft | 421 kts | 51° |
| 2026-05-08 20:55 | 47.82601 | 0.27781 | 24003 ft | 423 kts | 45° |
| 2026-05-08 20:55 | 47.84745 | 0.30796 | 24009 ft | 423 kts | 45° |
| 2026-05-08 20:55 | 47.86874 | 0.33803 | 24003 ft | 423 kts | 46° |
| 2026-05-08 20:56 | 47.89004 | 0.36880 | 24010 ft | 424 kts | 46° |
| 2026-05-08 20:56 | 47.91089 | 0.39951 | 24015 ft | 423 kts | 46° |
| 2026-05-08 20:56 | 47.93161 | 0.43046 | 24021 ft | 423 kts | 47° |
| 2026-05-08 20:56 | 47.95206 | 0.46123 | 24027 ft | 423 kts | 47° |
| 2026-05-08 20:57 | 47.97294 | 0.49282 | 24026 ft | 423 kts | 47° |
| 2026-05-08 20:57 | 47.99324 | 0.52364 | 23842 ft | 422 kts | 47° |
| 2026-05-08 20:57 | 48.01390 | 0.55509 | 23540 ft | 419 kts | 46° |
| 2026-05-08 20:57 | 48.03400 | 0.58577 | 23207 ft | 416 kts | 46° |
| 2026-05-08 20:58 | 48.05411 | 0.61648 | 22764 ft | 413 kts | 46° |
| 2026-05-08 20:58 | 48.07418 | 0.64716 | 22251 ft | 412 kts | 46° |
| 2026-05-08 20:58 | 48.09412 | 0.67768 | 21712 ft | 410 kts | 47° |
| 2026-05-08 20:58 | 48.11400 | 0.70816 | 21165 ft | 410 kts | 47° |
| 2026-05-08 20:59 | 48.13388 | 0.73868 | 20617 ft | 409 kts | 46° |
| 2026-05-08 20:59 | 48.15388 | 0.76938 | 20074 ft | 407 kts | 47° |
| 2026-05-08 20:59 | 48.17350 | 0.79956 | 19552 ft | 406 kts | 46° |
| 2026-05-08 20:59 | 48.19288 | 0.82943 | 19039 ft | 404 kts | 46° |
| 2026-05-08 21:00 | 48.21247 | 0.85966 | 18517 ft | 402 kts | 46° |
| 2026-05-08 21:00 | 48.23175 | 0.88942 | 18011 ft | 400 kts | 46° |
| 2026-05-08 21:00 | 48.25097 | 0.91912 | 17518 ft | 397 kts | 46° |
| 2026-05-08 21:00 | 48.27025 | 0.94894 | 17038 ft | 394 kts | 46° |
| 2026-05-08 21:01 | 48.28924 | 0.97835 | 16555 ft | 391 kts | 46° |
| 2026-05-08 21:01 | 48.30799 | 1.00742 | 16084 ft | 388 kts | 46° |
| 2026-05-08 21:01 | 48.32660 | 1.03632 | 15610 ft | 385 kts | 46° |
| 2026-05-08 21:01 | 48.34516 | 1.06518 | 15133 ft | 382 kts | 46° |
| 2026-05-08 21:02 | 48.36338 | 1.09352 | 14657 ft | 379 kts | 46° |
| 2026-05-08 21:02 | 48.38154 | 1.12181 | 14178 ft | 376 kts | 46° |
| 2026-05-08 21:02 | 48.39971 | 1.15014 | 13702 ft | 373 kts | 46° |
| 2026-05-08 21:02 | 48.41743 | 1.17779 | 13226 ft | 370 kts | 46° |
| 2026-05-08 21:03 | 48.43517 | 1.20552 | 12770 ft | 366 kts | 46° |
| 2026-05-08 21:03 | 48.45272 | 1.23297 | 12538 ft | 355 kts | 46° |
| 2026-05-08 21:03 | 48.46878 | 1.26022 | 12250 ft | 348 kts | 53° |
| 2026-05-08 21:03 | 48.48228 | 1.29053 | 11898 ft | 349 kts | 58° |
| 2026-05-08 21:04 | 48.49511 | 1.32149 | 11556 ft | 351 kts | 58° |
| 2026-05-08 21:04 | 48.50851 | 1.35212 | 11248 ft | 349 kts | 51° |
| 2026-05-08 21:04 | 48.52594 | 1.37688 | 10998 ft | 349 kts | 38° |
| 2026-05-08 21:04 | 48.54550 | 1.39849 | 10756 ft | 346 kts | 36° |
| 2026-05-08 21:05 | 48.56443 | 1.41897 | 10486 ft | 327 kts | 36° |
| 2026-05-08 21:05 | 48.58217 | 1.43866 | 10234 ft | 307 kts | 37° |
| 2026-05-08 21:05 | 48.59880 | 1.45761 | 9984 ft | 290 kts | 38° |
| 2026-05-08 21:05 | 48.61458 | 1.47597 | 9851 ft | 290 kts | 38° |
| 2026-05-08 21:06 | 48.63064 | 1.49485 | 9730 ft | 289 kts | 39° |
| 2026-05-08 21:06 | 48.64624 | 1.51331 | 9600 ft | 287 kts | 39° |
| 2026-05-08 21:06 | 48.66194 | 1.53196 | 9473 ft | 286 kts | 39° |
| 2026-05-08 21:06 | 48.67766 | 1.55066 | 9348 ft | 286 kts | 39° |
| 2026-05-08 21:07 | 48.69318 | 1.56913 | 9224 ft | 285 kts | 39° |
| 2026-05-08 21:07 | 48.70869 | 1.58762 | 9098 ft | 285 kts | 38° |
| 2026-05-08 21:07 | 48.72441 | 1.60637 | 8969 ft | 284 kts | 38° |
| 2026-05-08 21:07 | 48.74005 | 1.62414 | 8844 ft | 283 kts | 34° |
| 2026-05-08 21:08 | 48.75661 | 1.63998 | 8726 ft | 283 kts | 30° |
| 2026-05-08 21:08 | 48.77399 | 1.65419 | 8604 ft | 282 kts | 28° |
| 2026-05-08 21:08 | 48.79128 | 1.66737 | 8324 ft | 279 kts | 27° |
| 2026-05-08 21:08 | 48.80846 | 1.68040 | 8002 ft | 276 kts | 27° |
| 2026-05-08 21:09 | 48.82560 | 1.69379 | 7956 ft | 277 kts | 32° |
| 2026-05-08 21:09 | 48.83948 | 1.71357 | 7961 ft | 276 kts | 55° |
| 2026-05-08 21:09 | 48.84970 | 1.73846 | 7964 ft | 276 kts | 60° |
| 2026-05-08 21:09 | 48.85892 | 1.76370 | 7956 ft | 276 kts | 62° |
| 2026-05-08 21:10 | 48.86805 | 1.78924 | 7894 ft | 272 kts | 62° |
| 2026-05-08 21:10 | 48.87709 | 1.81458 | 7526 ft | 272 kts | 62° |
| 2026-05-08 21:10 | 48.88604 | 1.83973 | 7106 ft | 272 kts | 62° |
| 2026-05-08 21:10 | 48.89492 | 1.86468 | 6748 ft | 271 kts | 62° |
| 2026-05-08 21:11 | 48.90395 | 1.89003 | 6390 ft | 269 kts | 62° |
| 2026-05-08 21:11 | 48.91280 | 1.91491 | 6027 ft | 268 kts | 62° |
| 2026-05-08 21:11 | 48.92157 | 1.93950 | 5686 ft | 266 kts | 62° |
| 2026-05-08 21:11 | 48.93031 | 1.96389 | 5435 ft | 259 kts | 62° |
| 2026-05-08 21:12 | 48.93885 | 1.98765 | 5268 ft | 251 kts | 62° |
| 2026-05-08 21:12 | 48.94715 | 2.01068 | 5097 ft | 242 kts | 62° |
| 2026-05-08 21:12 | 48.95484 | 2.03281 | 4973 ft | 231 kts | 64° |
| 2026-05-08 21:12 | 48.96109 | 2.05427 | 4962 ft | 217 kts | 71° |
| 2026-05-08 21:13 | 48.96479 | 2.07567 | 4961 ft | 203 kts | 80° |
| 2026-05-08 21:13 | 48.96708 | 2.09648 | 5043 ft | 190 kts | 81° |
| 2026-05-08 21:13 | 48.96892 | 2.11540 | 4973 ft | 174 kts | 82° |
| 2026-05-08 21:13 | 48.97036 | 2.13277 | 4942 ft | 156 kts | 83° |
| 2026-05-08 21:14 | 48.97154 | 2.14896 | 4959 ft | 155 kts | 83° |
| 2026-05-08 21:14 | 48.97260 | 2.16538 | 4971 ft | 154 kts | 84° |
| 2026-05-08 21:14 | 48.97354 | 2.18146 | 4970 ft | 154 kts | 84° |
| 2026-05-08 21:14 | 48.97443 | 2.19781 | 4962 ft | 154 kts | 85° |
| 2026-05-08 21:15 | 48.97525 | 2.21408 | 4801 ft | 154 kts | 85° |
| 2026-05-08 21:15 | 48.97603 | 2.23019 | 4595 ft | 152 kts | 85° |
| 2026-05-08 21:15 | 48.97679 | 2.24608 | 4394 ft | 151 kts | 85° |
| 2026-05-08 21:15 | 48.97754 | 2.26201 | 4191 ft | 150 kts | 85° |
| 2026-05-08 21:16 | 48.97827 | 2.27777 | 3990 ft | 149 kts | 85° |
| 2026-05-08 21:16 | 48.97901 | 2.29347 | 3788 ft | 149 kts | 85° |
| 2026-05-08 21:16 | 48.97977 | 2.30922 | 3593 ft | 148 kts | 85° |
| 2026-05-08 21:16 | 48.98052 | 2.32467 | 3421 ft | 142 kts | 85° |
| 2026-05-08 21:17 | 48.98123 | 2.33927 | 3227 ft | 139 kts | 85° |
| 2026-05-08 21:17 | 48.98196 | 2.35393 | 3039 ft | 138 kts | 85° |
| 2026-05-08 21:17 | 48.98270 | 2.36853 | 2853 ft | 138 kts | 85° |
| 2026-05-08 21:17 | 48.98342 | 2.38296 | 2669 ft | 137 kts | 85° |
| 2026-05-08 21:18 | 48.98415 | 2.39742 | 2487 ft | 137 kts | 84° |
| 2026-05-08 21:18 | 48.98489 | 2.41184 | 2308 ft | 136 kts | 84° |
| 2026-05-08 21:18 | 48.98562 | 2.42606 | 2131 ft | 136 kts | 84° |
| 2026-05-08 21:18 | 48.98644 | 2.44058 | 1957 ft | 136 kts | 84° |
| 2026-05-08 21:19 | 48.98709 | 2.45475 | 1798 ft | 136 kts | 84° |
| 2026-05-08 21:19 | 48.98780 | 2.46902 | 1611 ft | 135 kts | 84° |
| 2026-05-08 21:19 | 48.98845 | 2.48332 | 1427 ft | 135 kts | 83° |
| 2026-05-08 21:19 | 48.98938 | 2.49745 | 1256 ft | 134 kts | 83° |
| 2026-05-08 21:20 | 48.99015 | 2.51152 | 1097 ft | 134 kts | 84° |
| 2026-05-08 21:20 | 48.99079 | 2.52565 | 890 ft | 133 kts | 84° |
| 2026-05-08 21:20 | 48.99145 | 2.53959 | 709 ft | 133 kts | 83° |
| 2026-05-08 21:20 | 48.99223 | 2.55352 | 542 ft | 133 kts | 83° |
| 2026-05-08 21:21 | 48.99300 | 2.56766 | 382 ft | 133 kts | 83° |
| 2026-05-08 21:21 | 48.99374 | 2.58106 | 338 ft | 111 kts | 85° |
| 2026-05-08 21:21 | 48.99422 | 2.59018 | 326 ft | 62 kts | 84° |
| 2026-05-08 21:21 | 48.99454 | 2.59584 | 323 ft | 48 kts | 85° |
| 2026-05-08 21:22 | 48.99516 | 2.59914 | 323 ft | 23 kts | 44° |
| 2026-05-08 21:22 | 48.99616 | 2.59981 | 324 ft | 13 kts | 0° |
| 2026-05-08 21:22 | 48.99711 | 2.59969 | 325 ft | 13 kts | 355° |
| 2026-05-08 21:22 | 48.99804 | 2.59959 | 327 ft | 12 kts | 355° |
| 2026-05-08 21:23 | 48.99887 | 2.59984 | 327 ft | 12 kts | 42° |
| 2026-05-08 21:23 | 48.99950 | 2.60071 | 328 ft | 11 kts | 16° |
| 2026-05-08 21:23 | 48.99965 | 2.60074 | 328 ft | 0 kts | 359° |
| 2026-05-08 21:23 | 48.99969 | 2.60074 | 329 ft | 0 kts | 358° |
| 2026-05-08 21:24 | 48.99974 | 2.60073 | 329 ft | 1 kts | 351° |
| 2026-05-08 21:24 | 48.99990 | 2.60064 | 329 ft | 3 kts | 328° |
| 2026-05-08 21:24 | 49.00009 | 2.60025 | 329 ft | 6 kts | 287° |
| 2026-05-08 21:24 | 49.00008 | 2.59940 | 330 ft | 10 kts | 264° |
| 2026-05-08 21:25 | 49.00032 | 2.59842 | 331 ft | 10 kts | 327° |
| 2026-05-08 21:25 | 49.00083 | 2.59776 | 332 ft | 9 kts | 289° |
| 2026-05-08 21:25 | 49.00083 | 2.59668 | 332 ft | 10 kts | 265° |
| 2026-05-08 21:25 | 49.00077 | 2.59551 | 332 ft | 11 kts | 265° |
| 2026-05-08 21:26 | 49.00070 | 2.59423 | 332 ft | 12 kts | 265° |
| 2026-05-08 21:26 | 49.00063 | 2.59287 | 332 ft | 13 kts | 265° |
| 2026-05-08 21:26 | 49.00055 | 2.59143 | 333 ft | 13 kts | 264° |
| 2026-05-08 21:26 | 49.00046 | 2.58997 | 334 ft | 10 kts | 265° |
| 2026-05-08 21:27 | 49.00046 | 2.58982 | 334 ft | 0 kts | 266° |
| 2026-05-08 21:27 | 49.00046 | 2.58969 | 334 ft | 1 kts | 271° |
| 2026-05-08 21:27 | 49.00047 | 2.58954 | 334 ft | 1 kts | 282° |
| 2026-05-08 21:27 | 49.00049 | 2.58942 | 334 ft | 1 kts | 288° |
| 2026-05-08 21:28 | 49.00054 | 2.58929 | 335 ft | 1 kts | 305° |
| 2026-05-08 21:28 | 49.00086 | 2.58897 | 335 ft | 9 kts | 344° |
| 2026-05-08 21:28 | 49.00162 | 2.58889 | 336 ft | 11 kts | 355° |
| 2026-05-08 21:28 | 49.00240 | 2.58878 | 337 ft | 11 kts | 354° |
| 2026-05-08 21:29 | 49.00316 | 2.58868 | 338 ft | 11 kts | 355° |
| 2026-05-08 21:29 | 49.00395 | 2.58861 | 339 ft | 11 kts | 357° |
| 2026-05-08 21:29 | 49.00475 | 2.58852 | 340 ft | 11 kts | 355° |
| 2026-05-08 21:29 | 49.00556 | 2.58842 | 340 ft | 11 kts | 352° |
| 2026-05-08 21:30 | 49.00638 | 2.58830 | 341 ft | 11 kts | 354° |
| 2026-05-08 21:30 | 49.00720 | 2.58823 | 342 ft | 12 kts | 354° |
| 2026-05-08 21:30 | 49.00802 | 2.58806 | 343 ft | 11 kts | 345° |
| 2026-05-08 21:30 | 49.00847 | 2.58744 | 343 ft | 8 kts | 282° |
| 2026-05-08 21:31 | 49.00846 | 2.58650 | 344 ft | 9 kts | 268° |
| 2026-05-08 21:31 | 49.00840 | 2.58553 | 344 ft | 9 kts | 263° |
| 2026-05-08 21:31 | 49.00834 | 2.58451 | 346 ft | 9 kts | 266° |
| 2026-05-08 21:31 | 49.00830 | 2.58358 | 348 ft | 8 kts | 266° |
| 2026-05-08 21:32 | 49.00825 | 2.58268 | 349 ft | 6 kts | 264° |
| 2026-05-08 21:32 | 49.00822 | 2.58207 | 349 ft | 5 kts | 264° |
| 2026-05-08 21:32 | 49.00819 | 2.58147 | 350 ft | 5 kts | 264° |
| 2026-05-08 21:32 | 49.00815 | 2.58087 | 350 ft | 5 kts | 264° |
| 2026-05-08 21:33 | 49.00812 | 2.58035 | 351 ft | 4 kts | 265° |
| 2026-05-08 21:33 | 49.00810 | 2.57980 | 352 ft | 5 kts | 265° |
| 2026-05-08 21:33 | 49.00807 | 2.57930 | 353 ft | 4 kts | 264° |
| 2026-05-08 21:33 | 49.00802 | 2.57864 | 354 ft | 9 kts | 263° |
| 2026-05-08 21:34 | 49.00795 | 2.57714 | 356 ft | 14 kts | 266° |
| 2026-05-08 21:34 | 49.00785 | 2.57563 | 357 ft | 14 kts | 266° |
| 2026-05-08 21:34 | 49.00779 | 2.57412 | 358 ft | 14 kts | 265° |
| 2026-05-08 21:34 | 49.00766 | 2.57265 | 359 ft | 13 kts | 241° |
| 2026-05-08 21:35 | 49.00689 | 2.57183 | 359 ft | 13 kts | 241° |
| 2026-05-08 21:35 | 49.00659 | 2.57043 | 359 ft | 14 kts | 261° |
| 2026-05-08 21:35 | 49.00651 | 2.56892 | 359 ft | 14 kts | 264° |
| 2026-05-08 21:35 | 49.00642 | 2.56733 | 359 ft | 15 kts | 265° |
| 2026-05-08 21:36 | 49.00644 | 2.56639 | 359 ft | 6 kts | 306° |
| 2026-05-08 21:36 | 49.00685 | 2.56622 | 359 ft | 6 kts | 356° |
| 2026-05-08 21:36 | 49.00707 | 2.56619 | 359 ft | 0 kts | 354° |